sensor_id;sensor_type;location;lat;lon;timestamp;P1;durP1;ratioP1;P2;durP2;ratioP2
39324;SDS011;25037;49.488;9.900;2023-03-14T00:00:17;0.47;;;0.10;;
39324;SDS011;25037;49.488;9.900;2023-03-14T00:02:43;2.45;;;0.13;;
39324;SDS011;25037;49.488;9.900;2023-03-14T00:05:10;0.82;;;0.20;;
39324;SDS011;25037;49.488;9.900;2023-03-14T00:07:37;1.08;;;0.17;;
39324;SDS011;25037;49.488;9.900;2023-03-14T00:10:07;0.70;;;0.25;;
39324;SDS011;25037;49.488;9.900;2023-03-14T00:12:36;1.08;;;0.10;;
39324;SDS011;25037;49.488;9.900;2023-03-14T00:15:03;0.98;;;0.20;;
39324;SDS011;25037;49.488;9.900;2023-03-14T00:17:30;2.20;;;0.20;;
39324;SDS011;25037;49.488;9.900;2023-03-14T00:19:57;0.75;;;0.20;;
39324;SDS011;25037;49.488;9.900;2023-03-14T00:22:30;0.82;;;0.10;;
39324;SDS011;25037;49.488;9.900;2023-03-14T00:24:57;0.40;;;0.10;;
39324;SDS011;25037;49.488;9.900;2023-03-14T00:27:24;0.88;;;0.10;;
39324;SDS011;25037;49.488;9.900;2023-03-14T00:29:51;0.28;;;0.10;;
39324;SDS011;25037;49.488;9.900;2023-03-14T00:32:17;0.65;;;0.20;;
39324;SDS011;25037;49.488;9.900;2023-03-14T00:34:44;0.80;;;0.20;;
39324;SDS011;25037;49.488;9.900;2023-03-14T00:37:11;0.22;;;0.10;;
39324;SDS011;25037;49.488;9.900;2023-03-14T00:39:37;1.52;;;0.20;;
39324;SDS011;25037;49.488;9.900;2023-03-14T00:42:04;1.35;;;0.20;;
39324;SDS011;25037;49.488;9.900;2023-03-14T00:44:31;0.65;;;0.20;;
39324;SDS011;25037;49.488;9.900;2023-03-14T00:46:58;2.03;;;0.40;;
39324;SDS011;25037;49.488;9.900;2023-03-14T00:49:25;0.43;;;0.10;;
39324;SDS011;25037;49.488;9.900;2023-03-14T00:51:52;1.52;;;0.10;;
39324;SDS011;25037;49.488;9.900;2023-03-14T00:54:19;0.73;;;0.10;;
39324;SDS011;25037;49.488;9.900;2023-03-14T00:56:46;0.82;;;0.25;;
39324;SDS011;25037;49.488;9.900;2023-03-14T00:59:13;0.50;;;0.10;;
39324;SDS011;25037;49.488;9.900;2023-03-14T01:01:41;1.77;;;0.30;;
39324;SDS011;25037;49.488;9.900;2023-03-14T01:04:08;0.50;;;0.10;;
39324;SDS011;25037;49.488;9.900;2023-03-14T01:06:34;0.75;;;0.20;;
39324;SDS011;25037;49.488;9.900;2023-03-14T01:09:01;0.73;;;0.10;;
39324;SDS011;25037;49.488;9.900;2023-03-14T01:11:30;2.72;;;0.20;;
39324;SDS011;25037;49.488;9.900;2023-03-14T01:13:58;1.83;;;0.60;;
39324;SDS011;25037;49.488;9.900;2023-03-14T01:16:27;3.25;;;0.30;;
39324;SDS011;25037;49.488;9.900;2023-03-14T01:18:54;0.63;;;0.15;;
39324;SDS011;25037;49.488;9.900;2023-03-14T01:21:22;1.00;;;0.20;;
39324;SDS011;25037;49.488;9.900;2023-03-14T01:23:51;0.65;;;0.10;;
39324;SDS011;25037;49.488;9.900;2023-03-14T01:26:20;1.30;;;0.20;;
39324;SDS011;25037;49.488;9.900;2023-03-14T01:28:49;1.70;;;0.20;;
39324;SDS011;25037;49.488;9.900;2023-03-14T01:31:17;1.20;;;0.28;;
39324;SDS011;25037;49.488;9.900;2023-03-14T01:33:45;1.02;;;0.22;;
39324;SDS011;25037;49.488;9.900;2023-03-14T01:36:12;0.55;;;0.20;;
39324;SDS011;25037;49.488;9.900;2023-03-14T01:38:39;1.17;;;0.20;;
39324;SDS011;25037;49.488;9.900;2023-03-14T01:41:07;0.73;;;0.13;;
39324;SDS011;25037;49.488;9.900;2023-03-14T01:43:38;1.45;;;0.22;;
39324;SDS011;25037;49.488;9.900;2023-03-14T01:48:32;0.38;;;0.10;;
39324;SDS011;25037;49.488;9.900;2023-03-14T01:51:01;1.00;;;0.20;;
39324;SDS011;25037;49.488;9.900;2023-03-14T01:53:29;0.82;;;0.20;;
39324;SDS011;25037;49.488;9.900;2023-03-14T01:55:56;1.02;;;0.20;;
39324;SDS011;25037;49.488;9.900;2023-03-14T01:58:24;1.48;;;0.17;;
39324;SDS011;25037;49.488;9.900;2023-03-14T02:00:53;1.35;;;0.20;;
39324;SDS011;25037;49.488;9.900;2023-03-14T02:03:23;2.03;;;0.20;;
39324;SDS011;25037;49.488;9.900;2023-03-14T02:05:51;1.65;;;0.30;;
39324;SDS011;25037;49.488;9.900;2023-03-14T02:08:22;2.90;;;0.30;;
39324;SDS011;25037;49.488;9.900;2023-03-14T02:10:50;3.72;;;0.60;;
39324;SDS011;25037;49.488;9.900;2023-03-14T02:13:18;3.13;;;0.55;;
39324;SDS011;25037;49.488;9.900;2023-03-14T02:15:46;1.75;;;0.30;;
39324;SDS011;25037;49.488;9.900;2023-03-14T02:18:13;0.90;;;0.28;;
39324;SDS011;25037;49.488;9.900;2023-03-14T02:20:47;2.28;;;0.40;;
39324;SDS011;25037;49.488;9.900;2023-03-14T02:23:37;1.67;;;0.80;;
39324;SDS011;25037;49.488;9.900;2023-03-14T02:26:29;2.15;;;0.57;;
39324;SDS011;25037;49.488;9.900;2023-03-14T02:29:02;2.35;;;0.60;;
39324;SDS011;25037;49.488;9.900;2023-03-14T02:31:29;3.17;;;0.50;;
39324;SDS011;25037;49.488;9.900;2023-03-14T02:33:56;1.65;;;0.50;;
39324;SDS011;25037;49.488;9.900;2023-03-14T02:36:23;3.22;;;0.63;;
39324;SDS011;25037;49.488;9.900;2023-03-14T02:41:40;3.17;;;0.90;;
39324;SDS011;25037;49.488;9.900;2023-03-14T02:44:08;2.13;;;0.50;;
39324;SDS011;25037;49.488;9.900;2023-03-14T02:46:35;2.30;;;0.60;;
39324;SDS011;25037;49.488;9.900;2023-03-14T02:49:02;0.77;;;0.20;;
39324;SDS011;25037;49.488;9.900;2023-03-14T02:51:33;1.85;;;0.25;;
39324;SDS011;25037;49.488;9.900;2023-03-14T02:54:01;1.45;;;0.22;;
39324;SDS011;25037;49.488;9.900;2023-03-14T02:56:27;1.98;;;0.30;;
39324;SDS011;25037;49.488;9.900;2023-03-14T02:58:54;0.73;;;0.17;;
39324;SDS011;25037;49.488;9.900;2023-03-14T03:01:21;1.65;;;0.20;;
39324;SDS011;25037;49.488;9.900;2023-03-14T03:03:47;3.78;;;0.40;;
39324;SDS011;25037;49.488;9.900;2023-03-14T03:06:14;1.60;;;0.50;;
39324;SDS011;25037;49.488;9.900;2023-03-14T03:08:41;1.77;;;0.20;;
39324;SDS011;25037;49.488;9.900;2023-03-14T03:11:08;1.63;;;0.30;;
39324;SDS011;25037;49.488;9.900;2023-03-14T03:13:34;2.63;;;0.50;;
39324;SDS011;25037;49.488;9.900;2023-03-14T03:16:01;2.42;;;0.40;;
39324;SDS011;25037;49.488;9.900;2023-03-14T03:18:28;3.05;;;0.50;;
39324;SDS011;25037;49.488;9.900;2023-03-14T03:20:55;2.22;;;0.30;;
39324;SDS011;25037;49.488;9.900;2023-03-14T03:23:26;0.95;;;0.20;;
39324;SDS011;25037;49.488;9.900;2023-03-14T03:25:53;1.10;;;0.20;;
39324;SDS011;25037;49.488;9.900;2023-03-14T03:28:20;1.50;;;0.20;;
39324;SDS011;25037;49.488;9.900;2023-03-14T03:30:46;1.50;;;0.20;;
39324;SDS011;25037;49.488;9.900;2023-03-14T03:33:13;0.82;;;0.30;;
39324;SDS011;25037;49.488;9.900;2023-03-14T03:35:44;0.60;;;0.20;;
39324;SDS011;25037;49.488;9.900;2023-03-14T03:38:13;3.05;;;0.25;;
39324;SDS011;25037;49.488;9.900;2023-03-14T03:40:41;1.45;;;0.20;;
39324;SDS011;25037;49.488;9.900;2023-03-14T03:43:08;0.85;;;0.20;;
39324;SDS011;25037;49.488;9.900;2023-03-14T03:45:35;1.38;;;0.40;;
39324;SDS011;25037;49.488;9.900;2023-03-14T03:48:02;1.92;;;0.38;;
39324;SDS011;25037;49.488;9.900;2023-03-14T03:50:28;1.92;;;0.30;;
39324;SDS011;25037;49.488;9.900;2023-03-14T03:52:55;1.80;;;0.22;;
39324;SDS011;25037;49.488;9.900;2023-03-14T03:55:22;0.98;;;0.10;;
39324;SDS011;25037;49.488;9.900;2023-03-14T03:57:48;0.77;;;0.20;;
39324;SDS011;25037;49.488;9.900;2023-03-14T04:00:15;1.50;;;0.20;;
39324;SDS011;25037;49.488;9.900;2023-03-14T04:02:42;2.28;;;0.22;;
39324;SDS011;25037;49.488;9.900;2023-03-14T04:05:09;1.23;;;0.22;;
39324;SDS011;25037;49.488;9.900;2023-03-14T04:07:35;0.98;;;0.20;;
39324;SDS011;25037;49.488;9.900;2023-03-14T04:10:02;1.60;;;0.20;;
39324;SDS011;25037;49.488;9.900;2023-03-14T04:12:28;0.68;;;0.17;;
39324;SDS011;25037;49.488;9.900;2023-03-14T04:14:55;1.15;;;0.25;;
39324;SDS011;25037;49.488;9.900;2023-03-14T04:17:22;1.30;;;0.28;;
39324;SDS011;25037;49.488;9.900;2023-03-14T04:19:48;1.67;;;0.20;;
39324;SDS011;25037;49.488;9.900;2023-03-14T04:22:17;2.42;;;0.20;;
39324;SDS011;25037;49.488;9.900;2023-03-14T04:24:44;1.38;;;0.35;;
39324;SDS011;25037;49.488;9.900;2023-03-14T04:27:10;0.68;;;0.17;;
39324;SDS011;25037;49.488;9.900;2023-03-14T04:29:37;0.98;;;0.20;;
39324;SDS011;25037;49.488;9.900;2023-03-14T04:32:04;1.08;;;0.30;;
39324;SDS011;25037;49.488;9.900;2023-03-14T04:34:31;1.45;;;0.20;;
39324;SDS011;25037;49.488;9.900;2023-03-14T04:36:57;2.28;;;0.25;;
39324;SDS011;25037;49.488;9.900;2023-03-14T04:39:24;0.75;;;0.20;;
39324;SDS011;25037;49.488;9.900;2023-03-14T04:41:50;2.03;;;0.40;;
39324;SDS011;25037;49.488;9.900;2023-03-14T04:44:18;2.85;;;0.28;;
39324;SDS011;25037;49.488;9.900;2023-03-14T04:46:44;1.05;;;0.20;;
39324;SDS011;25037;49.488;9.900;2023-03-14T04:49:11;0.88;;;0.20;;
39324;SDS011;25037;49.488;9.900;2023-03-14T04:51:38;2.45;;;0.35;;
39324;SDS011;25037;49.488;9.900;2023-03-14T04:54:04;1.35;;;0.30;;
39324;SDS011;25037;49.488;9.900;2023-03-14T04:56:31;1.95;;;0.40;;
39324;SDS011;25037;49.488;9.900;2023-03-14T04:58:57;1.15;;;0.20;;
39324;SDS011;25037;49.488;9.900;2023-03-14T05:01:24;2.15;;;0.30;;
39324;SDS011;25037;49.488;9.900;2023-03-14T05:03:51;1.55;;;0.30;;
39324;SDS011;25037;49.488;9.900;2023-03-14T05:06:17;1.67;;;0.25;;
39324;SDS011;25037;49.488;9.900;2023-03-14T05:08:44;2.60;;;0.30;;
39324;SDS011;25037;49.488;9.900;2023-03-14T05:11:12;2.55;;;0.28;;
39324;SDS011;25037;49.488;9.900;2023-03-14T05:13:39;2.22;;;0.30;;
39324;SDS011;25037;49.488;9.900;2023-03-14T05:16:06;1.55;;;0.32;;
39324;SDS011;25037;49.488;9.900;2023-03-14T05:18:34;2.80;;;0.43;;
39324;SDS011;25037;49.488;9.900;2023-03-14T05:21:01;1.75;;;0.50;;
39324;SDS011;25037;49.488;9.900;2023-03-14T05:23:28;2.47;;;0.57;;
39324;SDS011;25037;49.488;9.900;2023-03-14T05:25:54;1.15;;;0.50;;
39324;SDS011;25037;49.488;9.900;2023-03-14T05:28:21;3.10;;;0.30;;
39324;SDS011;25037;49.488;9.900;2023-03-14T05:30:48;2.20;;;0.30;;
39324;SDS011;25037;49.488;9.900;2023-03-14T05:33:15;1.60;;;0.20;;
39324;SDS011;25037;49.488;9.900;2023-03-14T05:35:42;3.75;;;0.30;;
39324;SDS011;25037;49.488;9.900;2023-03-14T05:38:09;3.33;;;0.40;;
39324;SDS011;25037;49.488;9.900;2023-03-14T05:40:35;1.80;;;0.40;;
39324;SDS011;25037;49.488;9.900;2023-03-14T05:43:02;3.40;;;0.20;;
39324;SDS011;25037;49.488;9.900;2023-03-14T05:45:28;2.97;;;0.43;;
39324;SDS011;25037;49.488;9.900;2023-03-14T05:47:55;2.92;;;0.50;;
39324;SDS011;25037;49.488;9.900;2023-03-14T05:50:22;2.58;;;0.73;;
39324;SDS011;25037;49.488;9.900;2023-03-14T05:52:48;5.40;;;0.50;;
39324;SDS011;25037;49.488;9.900;2023-03-14T05:55:15;2.47;;;0.45;;
39324;SDS011;25037;49.488;9.900;2023-03-14T05:57:42;2.63;;;0.55;;
39324;SDS011;25037;49.488;9.900;2023-03-14T06:00:09;4.32;;;0.85;;
39324;SDS011;25037;49.488;9.900;2023-03-14T06:02:36;2.65;;;0.70;;
39324;SDS011;25037;49.488;9.900;2023-03-14T06:05:02;2.78;;;0.70;;
39324;SDS011;25037;49.488;9.900;2023-03-14T06:07:30;3.40;;;0.50;;
39324;SDS011;25037;49.488;9.900;2023-03-14T06:09:57;3.58;;;0.70;;
39324;SDS011;25037;49.488;9.900;2023-03-14T06:12:24;1.95;;;0.30;;
39324;SDS011;25037;49.488;9.900;2023-03-14T06:14:51;1.05;;;0.30;;
39324;SDS011;25037;49.488;9.900;2023-03-14T06:17:17;2.58;;;0.43;;
39324;SDS011;25037;49.488;9.900;2023-03-14T06:19:44;1.27;;;0.35;;
39324;SDS011;25037;49.488;9.900;2023-03-14T06:22:11;4.57;;;0.50;;
39324;SDS011;25037;49.488;9.900;2023-03-14T06:24:37;2.80;;;0.50;;
39324;SDS011;25037;49.488;9.900;2023-03-14T06:27:04;2.58;;;0.70;;
39324;SDS011;25037;49.488;9.900;2023-03-14T06:29:31;2.45;;;0.35;;
39324;SDS011;25037;49.488;9.900;2023-03-14T06:31:58;3.13;;;0.30;;
39324;SDS011;25037;49.488;9.900;2023-03-14T06:34:24;2.15;;;0.30;;
39324;SDS011;25037;49.488;9.900;2023-03-14T06:36:51;2.45;;;0.50;;
39324;SDS011;25037;49.488;9.900;2023-03-14T06:39:18;2.45;;;0.45;;
39324;SDS011;25037;49.488;9.900;2023-03-14T06:41:45;2.58;;;0.60;;
39324;SDS011;25037;49.488;9.900;2023-03-14T06:44:11;3.35;;;0.50;;
39324;SDS011;25037;49.488;9.900;2023-03-14T06:46:38;2.53;;;0.65;;
39324;SDS011;25037;49.488;9.900;2023-03-14T06:49:04;8.15;;;2.45;;
39324;SDS011;25037;49.488;9.900;2023-03-14T06:51:32;5.55;;;1.35;;
39324;SDS011;25037;49.488;9.900;2023-03-14T06:54:00;3.28;;;0.60;;
39324;SDS011;25037;49.488;9.900;2023-03-14T06:56:26;5.55;;;0.98;;
39324;SDS011;25037;49.488;9.900;2023-03-14T06:58:53;2.25;;;0.30;;
39324;SDS011;25037;49.488;9.900;2023-03-14T07:01:24;4.55;;;1.30;;
39324;SDS011;25037;49.488;9.900;2023-03-14T07:03:53;3.53;;;0.88;;
39324;SDS011;25037;49.488;9.900;2023-03-14T07:06:20;3.40;;;0.38;;
39324;SDS011;25037;49.488;9.900;2023-03-14T07:08:47;3.13;;;0.50;;
39324;SDS011;25037;49.488;9.900;2023-03-14T07:11:14;2.97;;;0.63;;
39324;SDS011;25037;49.488;9.900;2023-03-14T07:13:41;1.48;;;0.40;;
39324;SDS011;25037;49.488;9.900;2023-03-14T07:16:08;2.80;;;0.43;;
39324;SDS011;25037;49.488;9.900;2023-03-14T07:18:35;4.18;;;0.40;;
39324;SDS011;25037;49.488;9.900;2023-03-14T07:21:03;3.28;;;0.45;;
39324;SDS011;25037;49.488;9.900;2023-03-14T07:23:35;1.95;;;0.50;;
39324;SDS011;25037;49.488;9.900;2023-03-14T07:26:01;4.03;;;0.70;;
39324;SDS011;25037;49.488;9.900;2023-03-14T07:28:28;3.15;;;0.70;;
39324;SDS011;25037;49.488;9.900;2023-03-14T07:30:55;3.28;;;0.57;;
39324;SDS011;25037;49.488;9.900;2023-03-14T07:33:22;3.20;;;0.70;;
39324;SDS011;25037;49.488;9.900;2023-03-14T07:35:49;3.30;;;0.82;;
39324;SDS011;25037;49.488;9.900;2023-03-14T07:38:16;3.67;;;0.90;;
39324;SDS011;25037;49.488;9.900;2023-03-14T07:40:47;2.88;;;0.98;;
39324;SDS011;25037;49.488;9.900;2023-03-14T07:43:14;2.65;;;0.40;;
39324;SDS011;25037;49.488;9.900;2023-03-14T07:45:41;4.30;;;0.60;;
39324;SDS011;25037;49.488;9.900;2023-03-14T07:48:11;2.78;;;0.50;;
39324;SDS011;25037;49.488;9.900;2023-03-14T07:50:37;2.17;;;0.40;;
39324;SDS011;25037;49.488;9.900;2023-03-14T07:53:04;2.10;;;0.50;;
39324;SDS011;25037;49.488;9.900;2023-03-14T07:55:31;2.97;;;0.38;;
39324;SDS011;25037;49.488;9.900;2023-03-14T07:57:57;1.92;;;0.40;;
39324;SDS011;25037;49.488;9.900;2023-03-14T08:00:24;2.70;;;0.73;;
39324;SDS011;25037;49.488;9.900;2023-03-14T08:02:51;2.15;;;0.32;;
39324;SDS011;25037;49.488;9.900;2023-03-14T08:05:18;3.53;;;0.80;;
39324;SDS011;25037;49.488;9.900;2023-03-14T08:07:45;2.47;;;0.55;;
39324;SDS011;25037;49.488;9.900;2023-03-14T08:10:11;1.55;;;0.40;;
39324;SDS011;25037;49.488;9.900;2023-03-14T08:12:41;2.55;;;0.50;;
39324;SDS011;25037;49.488;9.900;2023-03-14T08:15:08;2.75;;;0.32;;
39324;SDS011;25037;49.488;9.900;2023-03-14T08:17:35;2.00;;;0.30;;
39324;SDS011;25037;49.488;9.900;2023-03-14T08:20:02;2.40;;;0.60;;
39324;SDS011;25037;49.488;9.900;2023-03-14T08:22:32;2.63;;;0.30;;
39324;SDS011;25037;49.488;9.900;2023-03-14T08:24:59;2.38;;;0.28;;
39324;SDS011;25037;49.488;9.900;2023-03-14T08:27:25;1.42;;;0.30;;
39324;SDS011;25037;49.488;9.900;2023-03-14T08:29:52;2.17;;;0.20;;
39324;SDS011;25037;49.488;9.900;2023-03-14T08:32:19;2.53;;;0.22;;
39324;SDS011;25037;49.488;9.900;2023-03-14T08:34:46;2.70;;;0.30;;
39324;SDS011;25037;49.488;9.900;2023-03-14T08:37:13;2.70;;;0.40;;
39324;SDS011;25037;49.488;9.900;2023-03-14T08:39:51;2.10;;;0.70;;
39324;SDS011;25037;49.488;9.900;2023-03-14T08:42:19;2.72;;;0.60;;
39324;SDS011;25037;49.488;9.900;2023-03-14T08:44:46;2.78;;;0.80;;
39324;SDS011;25037;49.488;9.900;2023-03-14T08:47:12;3.33;;;0.45;;
39324;SDS011;25037;49.488;9.900;2023-03-14T08:49:39;3.80;;;0.80;;
39324;SDS011;25037;49.488;9.900;2023-03-14T08:52:06;3.60;;;0.90;;
39324;SDS011;25037;49.488;9.900;2023-03-14T08:54:32;1.95;;;0.47;;
39324;SDS011;25037;49.488;9.900;2023-03-14T08:56:59;2.45;;;0.20;;
39324;SDS011;25037;49.488;9.900;2023-03-14T08:59:26;2.78;;;0.32;;
39324;SDS011;25037;49.488;9.900;2023-03-14T09:01:52;2.55;;;0.50;;
39324;SDS011;25037;49.488;9.900;2023-03-14T09:04:20;2.40;;;0.55;;
39324;SDS011;25037;49.488;9.900;2023-03-14T09:06:47;2.03;;;0.40;;
39324;SDS011;25037;49.488;9.900;2023-03-14T09:09:14;0.95;;;0.20;;
39324;SDS011;25037;49.488;9.900;2023-03-14T09:11:41;1.38;;;0.20;;
39324;SDS011;25037;49.488;9.900;2023-03-14T09:14:07;1.20;;;0.10;;
39324;SDS011;25037;49.488;9.900;2023-03-14T09:16:34;2.80;;;0.20;;
39324;SDS011;25037;49.488;9.900;2023-03-14T09:19:01;1.88;;;0.20;;
39324;SDS011;25037;49.488;9.900;2023-03-14T09:21:28;2.22;;;0.40;;
39324;SDS011;25037;49.488;9.900;2023-03-14T09:23:55;1.27;;;0.30;;
39324;SDS011;25037;49.488;9.900;2023-03-14T09:26:22;3.90;;;0.40;;
39324;SDS011;25037;49.488;9.900;2023-03-14T09:28:48;0.70;;;0.20;;
39324;SDS011;25037;49.488;9.900;2023-03-14T09:31:15;0.93;;;0.25;;
39324;SDS011;25037;49.488;9.900;2023-03-14T09:33:42;1.40;;;0.20;;
39324;SDS011;25037;49.488;9.900;2023-03-14T09:36:09;2.30;;;0.20;;
39324;SDS011;25037;49.488;9.900;2023-03-14T09:38:35;1.90;;;0.30;;
39324;SDS011;25037;49.488;9.900;2023-03-14T09:41:03;1.55;;;0.30;;
39324;SDS011;25037;49.488;9.900;2023-03-14T09:43:41;2.15;;;0.30;;
39324;SDS011;25037;49.488;9.900;2023-03-14T09:46:11;1.40;;;0.20;;
39324;SDS011;25037;49.488;9.900;2023-03-14T09:48:40;1.50;;;0.25;;
39324;SDS011;25037;49.488;9.900;2023-03-14T09:51:11;1.08;;;0.10;;
39324;SDS011;25037;49.488;9.900;2023-03-14T09:53:44;0.70;;;0.20;;
39324;SDS011;25037;49.488;9.900;2023-03-14T09:56:14;1.50;;;0.30;;
39324;SDS011;25037;49.488;9.900;2023-03-14T09:58:45;2.50;;;0.10;;
39324;SDS011;25037;49.488;9.900;2023-03-14T10:01:18;0.88;;;0.20;;
39324;SDS011;25037;49.488;9.900;2023-03-14T10:04:00;0.73;;;0.10;;
39324;SDS011;25037;49.488;9.900;2023-03-14T10:06:30;0.60;;;0.10;;
39324;SDS011;25037;49.488;9.900;2023-03-14T10:08:57;0.50;;;0.10;;
39324;SDS011;25037;49.488;9.900;2023-03-14T10:11:24;0.40;;;0.10;;
39324;SDS011;25037;49.488;9.900;2023-03-14T10:16:33;0.95;;;0.25;;
39324;SDS011;25037;49.488;9.900;2023-03-14T10:19:11;0.13;;;0.00;;
39324;SDS011;25037;49.488;9.900;2023-03-14T10:21:41;1.05;;;0.20;;
39324;SDS011;25037;49.488;9.900;2023-03-14T10:26:55;0.75;;;0.08;;
39324;SDS011;25037;49.488;9.900;2023-03-14T10:29:28;0.63;;;0.10;;
39324;SDS011;25037;49.488;9.900;2023-03-14T10:32:03;0.25;;;0.10;;
39324;SDS011;25037;49.488;9.900;2023-03-14T10:34:33;0.73;;;0.20;;
39324;SDS011;25037;49.488;9.900;2023-03-14T10:37:14;1.10;;;0.10;;
39324;SDS011;25037;49.488;9.900;2023-03-14T10:39:52;0.60;;;0.10;;
39324;SDS011;25037;49.488;9.900;2023-03-14T10:42:28;1.48;;;0.20;;
39324;SDS011;25037;49.488;9.900;2023-03-14T10:44:58;1.15;;;0.10;;
39324;SDS011;25037;49.488;9.900;2023-03-14T10:47:28;1.92;;;0.20;;
39324;SDS011;25037;49.488;9.900;2023-03-14T10:49:55;0.47;;;0.00;;
39324;SDS011;25037;49.488;9.900;2023-03-14T10:52:24;0.73;;;0.10;;
39324;SDS011;25037;49.488;9.900;2023-03-14T10:55:02;1.95;;;0.20;;
39324;SDS011;25037;49.488;9.900;2023-03-14T10:57:38;0.30;;;0.10;;
39324;SDS011;25037;49.488;9.900;2023-03-14T11:00:05;0.32;;;0.10;;
39324;SDS011;25037;49.488;9.900;2023-03-14T11:02:43;1.27;;;0.10;;
39324;SDS011;25037;49.488;9.900;2023-03-14T11:07:54;1.27;;;0.20;;
39324;SDS011;25037;49.488;9.900;2023-03-14T11:10:31;0.75;;;0.10;;
39324;SDS011;25037;49.488;9.900;2023-03-14T11:13:16;1.05;;;0.15;;
39324;SDS011;25037;49.488;9.900;2023-03-14T11:18:44;1.10;;;0.20;;
39324;SDS011;25037;49.488;9.900;2023-03-14T11:21:31;0.60;;;0.10;;
39324;SDS011;25037;49.488;9.900;2023-03-14T11:26:59;2.90;;;0.50;;
39324;SDS011;25037;49.488;9.900;2023-03-14T11:32:50;0.85;;;0.10;;
39324;SDS011;25037;49.488;9.900;2023-03-14T11:40:36;1.25;;;0.22;;
39324;SDS011;25037;49.488;9.900;2023-03-14T11:45:38;0.93;;;0.20;;
39324;SDS011;25037;49.488;9.900;2023-03-14T11:50:55;1.65;;;0.20;;
39324;SDS011;25037;49.488;9.900;2023-03-14T11:56:19;0.35;;;0.00;;
39324;SDS011;25037;49.488;9.900;2023-03-14T11:58:55;0.60;;;0.10;;
39324;SDS011;25037;49.488;9.900;2023-03-14T12:01:27;1.33;;;0.10;;
39324;SDS011;25037;49.488;9.900;2023-03-14T12:04:18;0.73;;;0.10;;
39324;SDS011;25037;49.488;9.900;2023-03-14T12:06:49;0.30;;;0.10;;
39324;SDS011;25037;49.488;9.900;2023-03-14T12:09:17;0.52;;;0.15;;
39324;SDS011;25037;49.488;9.900;2023-03-14T12:11:59;0.55;;;0.10;;
39324;SDS011;25037;49.488;9.900;2023-03-14T12:14:36;1.85;;;0.20;;
39324;SDS011;25037;49.488;9.900;2023-03-14T12:17:23;1.90;;;0.20;;
39324;SDS011;25037;49.488;9.900;2023-03-14T12:20:04;1.13;;;0.30;;
39324;SDS011;25037;49.488;9.900;2023-03-14T12:22:42;2.35;;;0.52;;
39324;SDS011;25037;49.488;9.900;2023-03-14T12:27:41;0.77;;;0.10;;
39324;SDS011;25037;49.488;9.900;2023-03-14T12:38:05;0.55;;;0.20;;
39324;SDS011;25037;49.488;9.900;2023-03-14T12:43:51;0.63;;;0.13;;
39324;SDS011;25037;49.488;9.900;2023-03-14T12:48:45;0.47;;;0.00;;
39324;SDS011;25037;49.488;9.900;2023-03-14T12:51:35;0.20;;;0.10;;
39324;SDS011;25037;49.488;9.900;2023-03-14T13:02:27;0.77;;;0.20;;
39324;SDS011;25037;49.488;9.900;2023-03-14T13:05:05;0.77;;;0.22;;
39324;SDS011;25037;49.488;9.900;2023-03-14T13:15:38;0.75;;;0.20;;
39324;SDS011;25037;49.488;9.900;2023-03-14T13:20:45;1.02;;;0.20;;
39324;SDS011;25037;49.488;9.900;2023-03-14T13:23:24;1.30;;;0.20;;
39324;SDS011;25037;49.488;9.900;2023-03-14T13:25:53;0.50;;;0.15;;
39324;SDS011;25037;49.488;9.900;2023-03-14T13:28:20;0.85;;;0.10;;
39324;SDS011;25037;49.488;9.900;2023-03-14T13:30:58;0.30;;;0.10;;
39324;SDS011;25037;49.488;9.900;2023-03-14T13:33:26;1.05;;;0.30;;
39324;SDS011;25037;49.488;9.900;2023-03-14T13:38:25;0.47;;;0.20;;
39324;SDS011;25037;49.488;9.900;2023-03-14T13:40:55;0.13;;;0.10;;
39324;SDS011;25037;49.488;9.900;2023-03-14T13:43:29;1.33;;;0.20;;
39324;SDS011;25037;49.488;9.900;2023-03-14T13:46:01;0.30;;;0.13;;
39324;SDS011;25037;49.488;9.900;2023-03-14T13:48:43;0.28;;;0.10;;
39324;SDS011;25037;49.488;9.900;2023-03-14T13:51:13;0.63;;;0.10;;
39324;SDS011;25037;49.488;9.900;2023-03-14T13:53:45;1.45;;;0.20;;
39324;SDS011;25037;49.488;9.900;2023-03-14T13:56:15;1.70;;;0.10;;
39324;SDS011;25037;49.488;9.900;2023-03-14T13:58:46;1.05;;;0.30;;
39324;SDS011;25037;49.488;9.900;2023-03-14T14:03:44;2.08;;;0.45;;
39324;SDS011;25037;49.488;9.900;2023-03-14T14:06:35;0.50;;;0.20;;
39324;SDS011;25037;49.488;9.900;2023-03-14T14:09:16;0.82;;;0.20;;
39324;SDS011;25037;49.488;9.900;2023-03-14T14:14:46;1.48;;;0.10;;
39324;SDS011;25037;49.488;9.900;2023-03-14T14:17:28;0.63;;;0.10;;
39324;SDS011;25037;49.488;9.900;2023-03-14T14:20:03;1.33;;;0.30;;
39324;SDS011;25037;49.488;9.900;2023-03-14T14:22:32;0.38;;;0.10;;
39324;SDS011;25037;49.488;9.900;2023-03-14T14:24:59;0.82;;;0.20;;
39324;SDS011;25037;49.488;9.900;2023-03-14T14:27:36;0.70;;;0.30;;
39324;SDS011;25037;49.488;9.900;2023-03-14T14:32:45;3.83;;;0.55;;
39324;SDS011;25037;49.488;9.900;2023-03-14T14:35:30;2.28;;;0.68;;
39324;SDS011;25037;49.488;9.900;2023-03-14T14:38:01;0.88;;;0.40;;
39324;SDS011;25037;49.488;9.900;2023-03-14T14:40:43;2.97;;;0.65;;
39324;SDS011;25037;49.488;9.900;2023-03-14T14:43:12;1.27;;;0.50;;
39324;SDS011;25037;49.488;9.900;2023-03-14T14:45:53;3.15;;;1.17;;
39324;SDS011;25037;49.488;9.900;2023-03-14T14:48:22;3.92;;;0.90;;
39324;SDS011;25037;49.488;9.900;2023-03-14T14:50:55;1.38;;;0.50;;
39324;SDS011;25037;49.488;9.900;2023-03-14T14:53:30;1.17;;;0.40;;
39324;SDS011;25037;49.488;9.900;2023-03-14T14:56:15;1.15;;;0.55;;
39324;SDS011;25037;49.488;9.900;2023-03-14T14:58:55;0.93;;;0.40;;
39324;SDS011;25037;49.488;9.900;2023-03-14T15:01:26;1.35;;;0.50;;
39324;SDS011;25037;49.488;9.900;2023-03-14T15:04:09;2.55;;;0.68;;
39324;SDS011;25037;49.488;9.900;2023-03-14T15:06:40;1.73;;;0.60;;
39324;SDS011;25037;49.488;9.900;2023-03-14T15:09:12;2.70;;;0.60;;
39324;SDS011;25037;49.488;9.900;2023-03-14T15:11:39;1.63;;;0.50;;
39324;SDS011;25037;49.488;9.900;2023-03-14T15:14:06;1.20;;;0.40;;
39324;SDS011;25037;49.488;9.900;2023-03-14T15:16:33;3.10;;;0.65;;
39324;SDS011;25037;49.488;9.900;2023-03-14T15:19:00;2.97;;;0.80;;
39324;SDS011;25037;49.488;9.900;2023-03-14T15:21:48;1.35;;;0.30;;
39324;SDS011;25037;49.488;9.900;2023-03-14T15:24:15;2.58;;;0.65;;
39324;SDS011;25037;49.488;9.900;2023-03-14T15:26:42;3.28;;;0.43;;
39324;SDS011;25037;49.488;9.900;2023-03-14T15:29:11;2.17;;;0.55;;
39324;SDS011;25037;49.488;9.900;2023-03-14T15:31:39;1.65;;;0.30;;
39324;SDS011;25037;49.488;9.900;2023-03-14T15:34:06;1.20;;;0.40;;
39324;SDS011;25037;49.488;9.900;2023-03-14T15:36:34;1.95;;;0.30;;
39324;SDS011;25037;49.488;9.900;2023-03-14T15:39:02;2.40;;;0.47;;
39324;SDS011;25037;49.488;9.900;2023-03-14T15:41:31;2.53;;;0.40;;
39324;SDS011;25037;49.488;9.900;2023-03-14T15:43:58;1.60;;;0.30;;
39324;SDS011;25037;49.488;9.900;2023-03-14T15:46:24;1.67;;;0.40;;
39324;SDS011;25037;49.488;9.900;2023-03-14T15:48:51;2.75;;;0.30;;
39324;SDS011;25037;49.488;9.900;2023-03-14T15:51:18;1.90;;;0.50;;
39324;SDS011;25037;49.488;9.900;2023-03-14T15:53:45;2.15;;;0.30;;
39324;SDS011;25037;49.488;9.900;2023-03-14T15:56:18;1.27;;;0.20;;
39324;SDS011;25037;49.488;9.900;2023-03-14T15:58:50;2.42;;;0.65;;
39324;SDS011;25037;49.488;9.900;2023-03-14T16:01:17;2.65;;;0.43;;
39324;SDS011;25037;49.488;9.900;2023-03-14T16:03:44;1.45;;;0.30;;
39324;SDS011;25037;49.488;9.900;2023-03-14T16:06:11;0.70;;;0.20;;
39324;SDS011;25037;49.488;9.900;2023-03-14T16:08:39;1.02;;;0.30;;
39324;SDS011;25037;49.488;9.900;2023-03-14T16:11:06;3.55;;;0.40;;
39324;SDS011;25037;49.488;9.900;2023-03-14T16:13:33;1.10;;;0.30;;
39324;SDS011;25037;49.488;9.900;2023-03-14T16:16:00;2.78;;;0.40;;
39324;SDS011;25037;49.488;9.900;2023-03-14T16:18:29;2.42;;;0.30;;
39324;SDS011;25037;49.488;9.900;2023-03-14T16:20:58;2.63;;;0.43;;